Aérodrome :
LOGIN :

S'inscrire | Disclaimer

   EN    FR    IT 

 










Légende :    VFR   VFR Marginal   IFR   IFR Intensif   IFR Très Intensif
Visi : 
Plafond : 
>= 8 km
>= 3000ft
5 à 8 km
1000 à 3000 ft
1500m à 5 km
500 à 1000 ft
800 à 1500m
200 à 500 ft
< 800m
< 200 ft
Symboles :   Orages  Brouillard  Fortes neiges  Fortes précipitations  Vent > 20 kt
SIGMETs :   Divers  Orages  Givrage  Turbulence  Onde Orograph.  Cendres Volcan.







- Altitude de l'aérodrome : 290 ft
- Code IATA : LAI
- Voir les cartes d'approche


LFRO - Lannion

DERNIER METAR :
  • 241000Z AUTO 21011KT 180V240 9999 OVC025 19/13 Q1019 NOSIG

METARs EXPIRÉS :
  • 240930Z AUTO 24013KT 9999 BKN026 OVC080 19/13 Q1019 NOSIG
  • 240900Z AUTO 23011KT 200V260 9999 BKN024 OVC078 19/14 Q1019 NOSIG
  • 240830Z AUTO 23013KT 200V260 9999 BKN023 OVC078 19/14 Q1019 NOSIG
  • 240800Z AUTO 23013KT 9999 SCT021 BKN074 19/14 Q1019 NOSIG
  • 240730Z AUTO 23013KT 9999 BKN017 BKN038 OVC074 17/14 Q1019 NOSIG

TAF TAF LFRO
Valide du 23 à 12h jusqu'au 24 à 12h UTC


231100Z 2312/2412 24008KT 9999 SCT020 BKN040
TEMPO 2314/2318 30015G25KT
BECMG 2321/2324 24015KT BKN006
Pas de NOTAMs connus pour ce terrain.



MET'MAP, la Météo Aéronautique d'un coup d'oeil ! - Copyright ORBIFLY Décembre 2007 - Disclaimer

ORBIFLY MET'MAP TEAM :

Programmation & Développement : Alexandra Zaïnal
Conception & Développement : Baudouin d'Aumeries
Co-Programmation & Développement : Marc-Olivier Méhu
Soutien technique & logistique : Manuel Goepfert

Contact : metmap@orbifly.com




SOURCES & CREDITS :

   NOAA